createdAt,value
2018-12-11T08:51:13.931Z,5.64
2018-12-11T08:52:13.949Z,5.6
2018-12-11T08:53:13.957Z,5.55
2018-12-11T08:54:13.970Z,5.62
2018-12-11T08:55:14.410Z,5.63
2018-12-11T08:56:14.571Z,5.64
2018-12-11T08:57:14.601Z,5.63
2018-12-11T08:58:14.597Z,5.63
2018-12-11T08:59:14.797Z,5.64
2018-12-11T09:00:15.700Z,5.62
2018-12-11T09:01:15.506Z,5.57
2018-12-11T09:02:15.862Z,5.59
2018-12-11T09:03:15.904Z,5.62
2018-12-11T09:04:15.817Z,5.6
2018-12-11T09:05:16.526Z,5.66
2018-12-11T09:06:16.526Z,5.69
2018-12-11T09:07:16.972Z,5.62
2018-12-11T09:08:16.967Z,5.69
2018-12-11T09:09:17.429Z,5.69
2018-12-11T09:10:17.486Z,5.59
2018-12-11T09:11:17.455Z,5.66
2018-12-11T09:12:17.874Z,5.59
2018-12-11T09:13:17.906Z,5.62
2018-12-11T09:14:18.384Z,5.57
2018-12-11T09:15:18.518Z,5.7
2018-12-11T09:16:18.283Z,5.62
2018-12-11T09:17:18.970Z,5.6
2018-12-11T09:18:19.019Z,5.63
2018-12-11T09:19:18.758Z,5.63
2018-12-11T09:20:19.282Z,5.69
2018-12-11T09:21:19.759Z,5.7
2018-12-11T09:22:19.763Z,5.66
2018-12-11T09:23:19.781Z,5.64
2018-12-11T09:24:19.808Z,5.6
2018-12-11T09:25:20.103Z,5.73
2018-12-11T09:26:20.112Z,5.67
2018-12-11T09:27:20.085Z,5.54
2018-12-11T09:28:20.191Z,5.62
2018-12-11T09:29:20.144Z,5.7
2018-12-11T09:30:20.644Z,5.63
2018-12-11T09:31:20.602Z,5.63
2018-12-11T09:32:20.620Z,5.6
2018-12-11T09:33:20.646Z,5.73
2018-12-11T09:34:20.794Z,5.6
2018-12-11T09:35:20.674Z,5.78
2018-12-11T09:36:20.828Z,5.69
2018-12-11T09:37:21.098Z,5.75
2018-12-11T09:38:21.542Z,5.8
2018-12-11T09:39:21.540Z,5.8
2018-12-11T09:40:26.792Z,5.7
2018-12-11T09:41:21.368Z,5.72
2018-12-11T09:42:27.731Z,5.67
2018-12-11T09:43:21.817Z,5.77
2018-12-11T09:44:22.277Z,5.72
2018-12-11T09:45:22.502Z,5.73
2018-12-11T09:46:22.515Z,5.81
2018-12-11T09:47:22.504Z,5.8
2018-12-11T09:48:22.532Z,5.73
2018-12-11T09:49:22.561Z,5.72
2018-12-11T09:50:22.741Z,5.8
2018-12-11T09:51:22.917Z,5.82
2018-12-11T09:52:22.791Z,5.89
2018-12-11T09:53:23.217Z,5.88
2018-12-11T09:54:23.263Z,5.88
2018-12-11T09:55:23.047Z,5.89
2018-12-11T09:56:23.520Z,5.89
2018-12-11T09:57:23.383Z,5.98
2018-12-11T09:58:23.382Z,5.87
2018-12-11T09:59:28.398Z,5.95
2018-12-11T10:00:28.344Z,5.87
2018-12-11T10:01:23.407Z,5.87
2018-12-11T10:02:23.513Z,5.96
2018-12-11T10:03:23.399Z,5.99
2018-12-11T10:04:23.715Z,6
2018-12-11T10:05:23.713Z,5.96
2018-12-11T10:06:23.756Z,6.02
2018-12-11T10:07:23.912Z,5.98
2018-12-11T10:08:23.939Z,6
2018-12-11T10:09:24.582Z,5.92
2018-12-11T10:10:24.623Z,5.85
2018-12-11T10:11:25.059Z,5.91
2018-12-11T10:12:25.047Z,5.88
2018-12-11T10:13:24.827Z,5.87
2018-12-11T10:14:24.926Z,5.82
2018-12-11T10:15:25.573Z,5.89
2018-12-11T10:16:25.141Z,5.87
2018-12-11T10:17:25.520Z,5.78
2018-12-11T10:18:25.909Z,5.81
2018-12-11T10:19:26.050Z,5.85
2018-12-11T10:20:26.763Z,5.82
2018-12-11T10:21:26.493Z,5.81
2018-12-11T10:22:26.789Z,5.82
2018-12-11T10:23:31.800Z,5.77
2018-12-11T10:24:26.972Z,5.77
2018-12-11T10:25:26.692Z,5.77
2018-12-11T10:26:27.427Z,5.8
2018-12-11T10:27:27.393Z,5.8
2018-12-11T10:28:27.174Z,5.85
2018-12-11T10:29:27.628Z,5.77
2018-12-11T10:30:27.759Z,5.88
2018-12-11T10:31:27.543Z,5.89
2018-12-11T10:32:27.801Z,5.85
2018-12-11T10:33:27.943Z,5.91
2018-12-11T10:34:27.987Z,5.88
2018-12-11T10:35:28.327Z,5.87
2018-12-11T10:36:28.785Z,5.96
2018-12-11T10:37:28.770Z,5.89
2018-12-11T10:38:28.801Z,5.87
2018-12-11T10:39:28.557Z,5.8
2018-12-11T10:40:29.211Z,5.89
2018-12-11T10:41:29.344Z,5.88
2018-12-11T10:42:29.372Z,5.85
2018-12-11T10:43:29.701Z,5.85
2018-12-11T10:44:29.409Z,5.85
2018-12-11T10:45:30.038Z,5.87
2018-12-11T10:46:36.295Z,5.85
2018-12-11T10:47:30.334Z,5.88
2018-12-11T10:48:30.202Z,5.81
2018-12-11T10:49:30.140Z,5.82
2018-12-11T10:50:30.171Z,5.87
2018-12-11T10:51:30.289Z,5.82
2018-12-11T10:52:30.220Z,5.84
2018-12-11T10:53:30.247Z,5.91
2018-12-11T10:54:30.394Z,5.88
2018-12-11T10:55:30.764Z,5.85
2018-12-11T10:56:30.781Z,5.84
2018-12-11T10:57:30.828Z,5.85
2018-12-11T10:58:31.001Z,5.8
2018-12-11T10:59:31.269Z,5.88
2018-12-11T11:00:32.766Z,5.81
2018-12-11T11:01:31.791Z,5.81
2018-12-11T11:02:32.168Z,5.82
2018-12-11T11:03:31.948Z,5.7
2018-12-11T11:04:32.355Z,5.8
2018-12-11T11:05:32.077Z,5.8
2018-12-11T11:06:32.473Z,5.78
2018-12-11T11:07:33.125Z,5.72
2018-12-11T11:08:33.479Z,5.78
2018-12-11T11:09:33.014Z,5.72
2018-12-11T11:10:33.444Z,5.7
2018-12-11T11:11:33.729Z,5.77
2018-12-11T11:12:34.142Z,5.78
2018-12-11T11:13:34.570Z,5.75
2018-12-11T11:14:34.763Z,5.69
2018-12-11T11:15:35.167Z,5.69
2018-12-11T11:16:35.397Z,5.72
2018-12-11T11:17:35.433Z,5.67
2018-12-11T11:18:35.846Z,5.6
2018-12-11T11:19:35.899Z,5.67
2018-12-11T11:20:36.154Z,5.75
2018-12-11T11:21:35.924Z,5.77
2018-12-11T11:22:35.982Z,5.66
2018-12-11T11:23:35.971Z,5.75
2018-12-11T11:24:36.002Z,5.7
2018-12-11T11:25:36.799Z,5.82
2018-12-11T11:26:36.170Z,5.81
2018-12-11T11:27:37.831Z,5.81
2018-12-11T11:28:36.599Z,5.8
2018-12-11T11:29:36.354Z,5.8
2018-12-11T11:30:36.984Z,5.81
2018-12-11T11:31:37.088Z,5.87
2018-12-11T11:32:37.205Z,5.82
2018-12-11T11:33:37.846Z,5.8
2018-12-11T11:34:38.269Z,5.8
2018-12-11T11:35:38.280Z,5.8
2018-12-11T11:36:38.310Z,5.77
2018-12-11T11:37:38.683Z,5.73
2018-12-11T11:38:38.721Z,5.8
2018-12-11T11:39:38.745Z,5.75
2018-12-11T11:40:38.847Z,5.75
2018-12-11T11:41:39.479Z,5.73
2018-12-11T11:42:39.521Z,5.75
2018-12-11T11:43:39.945Z,5.62
2018-12-11T11:44:39.840Z,5.73
2018-12-11T11:45:40.228Z,5.75
2018-12-11T11:46:40.262Z,5.66
2018-12-11T11:47:40.287Z,5.77
2018-12-11T11:48:40.427Z,5.72
2018-12-11T11:49:41.070Z,5.66
2018-12-11T11:50:41.099Z,5.78
2018-12-11T11:51:40.868Z,5.78
2018-12-11T11:52:41.265Z,5.7
2018-12-11T11:53:41.670Z,5.72
2018-12-11T11:54:42.042Z,5.73
2018-12-11T11:55:42.046Z,5.77
2018-12-11T11:56:42.077Z,5.81
2018-12-11T11:57:41.588Z,5.7
2018-12-11T11:58:42.131Z,5.73
2018-12-11T11:59:42.265Z,5.6
2018-12-11T12:00:42.901Z,5.63
2018-12-11T12:01:43.045Z,5.64
2018-12-11T12:02:43.558Z,5.59
2018-12-11T12:03:43.567Z,5.73
2018-12-11T12:04:43.587Z,5.67
2018-12-11T12:05:43.615Z,5.69
2018-12-11T12:06:43.642Z,5.72
2018-12-11T12:07:44.055Z,5.62
2018-12-11T12:08:44.083Z,5.63
2018-12-11T12:09:44.487Z,5.66
2018-12-11T12:10:44.652Z,5.63
2018-12-11T12:11:45.030Z,5.63
2018-12-11T12:12:45.198Z,5.57
2018-12-11T12:13:45.871Z,5.62
2018-12-11T12:14:51.537Z,5.52
2018-12-11T12:15:46.076Z,5.55
2018-12-11T12:16:46.460Z,5.51
2018-12-11T12:17:46.227Z,5.48
2018-12-11T12:18:46.262Z,5.46
2018-12-11T12:19:46.673Z,5.49
2018-12-11T12:20:46.940Z,5.52
2018-12-11T12:21:46.924Z,5.51
2018-12-11T12:22:46.759Z,5.52
2018-12-11T12:23:47.151Z,5.49
2018-12-11T12:24:47.179Z,5.45
2018-12-11T12:25:47.319Z,5.44
2018-12-11T12:26:47.104Z,5.44
2018-12-11T12:27:47.738Z,5.33
2018-12-11T12:28:47.528Z,5.36
2018-12-11T12:29:47.947Z,5.31
2018-12-11T12:30:47.933Z,5.24
2018-12-11T12:31:47.692Z,5.2
2018-12-11T12:32:47.736Z,5.21
2018-12-11T12:33:48.300Z,5.27
2018-12-11T12:34:47.922Z,5.26
2018-12-11T12:35:48.370Z,5.27
2018-12-11T12:36:48.567Z,5.27
2018-12-11T12:37:48.835Z,5.21
2018-12-11T12:38:48.348Z,5.15
2018-12-11T12:39:48.750Z,5.16
2018-12-11T12:40:49.102Z,5.15
2018-12-11T12:41:49.035Z,5.18
2018-12-11T12:42:49.075Z,5.2
2018-12-11T12:43:48.960Z,5.3
2018-12-11T12:44:49.043Z,5.36
2018-12-11T12:45:49.496Z,5.24
2018-12-11T12:46:49.929Z,5.27
2018-12-11T12:47:49.284Z,5.24
2018-12-11T12:48:49.422Z,5.28
2018-12-11T12:49:55.962Z,5.2
2018-12-11T12:50:55.961Z,5.28
2018-12-11T12:51:55.999Z,5.41
2018-12-11T12:52:55.998Z,5.27
2018-12-11T12:53:56.042Z,5.39
2018-12-11T12:54:56.490Z,5.37
2018-12-11T12:55:56.733Z,5.3
2018-12-11T12:56:56.298Z,5.36
2018-12-11T12:57:56.658Z,5.37
2018-12-11T12:58:57.065Z,5.41
2018-12-11T12:59:57.367Z,5.42
2018-12-11T13:00:58.389Z,5.45
2018-12-11T13:01:58.458Z,5.41
2018-12-11T13:03:00.061Z,5.48
2018-12-11T13:04:01.285Z,5.39
2018-12-11T13:04:58.161Z,5.41
2018-12-11T13:06:00.476Z,5.48
2018-12-11T13:06:58.071Z,5.44
2018-12-11T13:07:57.971Z,5.39
2018-12-11T13:08:58.274Z,5.42
2018-12-11T13:09:58.109Z,5.42
2018-12-11T13:10:57.907Z,5.42
2018-12-11T13:11:58.244Z,5.42
2018-12-11T13:12:58.590Z,5.48
2018-12-11T13:13:59.421Z,5.45
2018-12-11T13:14:58.732Z,5.41
2018-12-11T13:15:58.832Z,5.45
2018-12-11T13:16:58.761Z,5.52
2018-12-11T13:17:58.301Z,5.48
2018-12-11T13:18:59.148Z,5.46
2018-12-11T13:19:58.705Z,5.46
2018-12-11T13:20:58.804Z,5.46
2018-12-11T13:21:58.681Z,5.48
2018-12-11T13:22:58.744Z,5.42
2018-12-11T13:23:58.928Z,5.44
2018-12-11T13:24:58.245Z,5.48
2018-12-11T13:25:58.697Z,5.42
2018-12-11T13:26:59.285Z,5.42
2018-12-11T13:27:59.652Z,5.41
2018-12-11T13:28:58.608Z,5.36
2018-12-11T13:29:58.930Z,5.34
2018-12-11T13:30:58.575Z,5.24
2018-12-11T13:31:59.040Z,5.28
2018-12-11T13:32:58.755Z,5.23
2018-12-11T13:33:58.890Z,5.24
2018-12-11T13:34:58.837Z,5.26
2018-12-11T13:35:58.620Z,5.24
2018-12-11T13:36:59.090Z,5.23
2018-12-11T13:37:58.990Z,5.23
2018-12-11T13:38:59.675Z,5.26
2018-12-11T13:39:58.698Z,5.37
2018-12-11T13:40:58.706Z,5.36
2018-12-11T13:41:58.866Z,5.27
2018-12-11T13:42:58.905Z,5.36
2018-12-11T13:43:59.616Z,5.37
2018-12-11T13:44:58.971Z,5.39
2018-12-11T13:45:59.577Z,5.31
2018-12-11T13:46:59.309Z,5.27
2018-12-11T13:47:59.117Z,5.24
2018-12-11T13:48:59.019Z,5.21
2018-12-11T13:49:59.747Z,5.2
2018-12-11T13:50:59.210Z,5.26
2018-12-11T13:51:59.352Z,5.18
2018-12-11T13:52:59.367Z,5.24
2018-12-11T13:53:59.141Z,5.28
2018-12-11T13:55:00.642Z,5.31
2018-12-11T13:55:59.352Z,5.3
2018-12-11T13:56:59.620Z,5.37
2018-12-11T13:58:00.359Z,5.39
2018-12-11T13:58:59.001Z,5.45
2018-12-11T14:00:00.091Z,5.44
2018-12-11T14:00:59.333Z,5.44
2018-12-11T14:01:59.446Z,5.44
2018-12-11T14:02:59.394Z,5.34
2018-12-11T14:03:59.443Z,5.33
2018-12-11T14:04:59.199Z,5.27
2018-12-11T14:05:59.691Z,5.41
2018-12-11T14:06:59.687Z,5.41
2018-12-11T14:07:59.729Z,5.49
2018-12-11T14:09:00.174Z,5.48
2018-12-11T14:10:00.714Z,5.49
2018-12-11T14:11:00.622Z,5.42
2018-12-11T14:12:00.665Z,5.44
2018-12-11T14:13:00.822Z,5.39
2018-12-11T14:14:01.317Z,5.39
2018-12-11T14:15:01.517Z,5.44
2018-12-11T14:16:01.991Z,5.42
2018-12-11T14:17:01.911Z,5.41
2018-12-11T14:18:02.635Z,5.31
2018-12-11T14:19:02.635Z,5.39
2018-12-11T14:20:03.510Z,5.42
2018-12-11T14:21:03.111Z,5.46
2018-12-11T14:22:03.135Z,5.48
2018-12-11T14:23:02.968Z,5.42
2018-12-11T14:24:03.181Z,5.44
2018-12-11T14:25:03.237Z,5.42
2018-12-11T14:26:03.452Z,5.46
2018-12-11T14:27:04.602Z,5.41
2018-12-11T14:28:04.616Z,5.39
2018-12-11T14:29:04.634Z,5.3
2018-12-11T14:30:10.722Z,5.34
2018-12-11T14:31:04.661Z,5.31
2018-12-11T14:32:04.678Z,5.39
2018-12-11T14:33:04.710Z,5.33
2018-12-11T14:34:05.159Z,5.37
2018-12-11T14:35:05.208Z,5.33
2018-12-11T14:36:05.214Z,5.3
2018-12-11T14:37:05.239Z,5.31
2018-12-11T14:38:05.262Z,5.31
2018-12-11T14:39:05.304Z,5.3
2018-12-11T14:40:05.328Z,5.45
2018-12-11T14:41:05.524Z,5.37
2018-12-11T14:42:05.978Z,5.36
2018-12-11T14:43:06.009Z,5.39
2018-12-11T14:44:06.022Z,5.42
2018-12-11T14:45:06.551Z,5.42
2018-12-11T14:46:06.312Z,5.45
2018-12-11T14:47:06.749Z,5.45
2018-12-11T14:48:06.510Z,5.42
2018-12-11T14:49:06.808Z,5.41
2018-12-11T14:50:07.515Z,5.39
2018-12-11T14:51:07.243Z,5.42
2018-12-11T14:52:07.282Z,5.44
2018-12-11T14:53:07.092Z,5.41
2018-12-11T14:54:07.053Z,5.39
2018-12-11T14:55:07.330Z,5.45
2018-12-11T14:56:07.500Z,5.46
2018-12-11T14:57:07.534Z,5.34
2018-12-11T14:58:07.562Z,5.39
2018-12-11T14:59:07.597Z,5.34
2018-12-11T15:00:07.468Z,5.39
2018-12-11T15:01:09.253Z,5.37
2018-12-11T15:02:08.282Z,5.44
2018-12-11T15:03:08.355Z,5.34
2018-12-11T15:04:08.266Z,5.44
2018-12-11T15:05:07.719Z,5.37
2018-12-11T15:06:08.422Z,5.37
2018-12-11T15:07:08.247Z,5.36
2018-12-11T15:08:08.449Z,5.37
2018-12-11T15:09:08.454Z,5.33
2018-12-11T15:10:08.205Z,5.33
2018-12-11T15:11:08.555Z,5.3
2018-12-11T15:12:09.725Z,5.33
2018-12-11T15:13:08.306Z,5.34
2018-12-11T15:14:08.238Z,5.36
2018-12-11T15:15:09.501Z,5.41
2018-12-11T15:16:09.122Z,5.37
2018-12-11T15:17:08.937Z,5.36
2018-12-11T15:18:09.876Z,5.37
2018-12-11T15:19:11.766Z,5.39
2018-12-11T15:20:08.092Z,5.42
2018-12-11T15:21:08.598Z,5.41
2018-12-11T15:22:08.342Z,5.41
2018-12-11T15:23:09.415Z,5.3
2018-12-11T15:24:08.909Z,5.37
2018-12-11T15:25:10.322Z,5.26
2018-12-11T15:26:10.814Z,5.34
2018-12-11T15:27:09.244Z,5.41
2018-12-11T15:28:09.231Z,5.39
2018-12-11T15:29:08.996Z,5.45
2018-12-11T15:30:09.407Z,5.48
2018-12-11T15:31:09.550Z,5.48
2018-12-11T15:32:10.108Z,5.51
2018-12-11T15:33:09.816Z,5.44
2018-12-11T15:34:10.383Z,5.41
2018-12-11T15:35:08.851Z,5.49
2018-12-11T15:36:09.206Z,5.46
2018-12-11T15:37:10.991Z,5.51
2018-12-11T15:38:10.672Z,5.44
2018-12-11T15:39:10.655Z,5.48
2018-12-11T15:40:09.285Z,5.44
2018-12-11T15:41:10.244Z,5.48
2018-12-11T15:42:10.125Z,5.44
2018-12-11T15:43:10.212Z,5.46
2018-12-11T15:44:10.335Z,5.48
2018-12-11T15:45:10.068Z,5.46
2018-12-11T15:46:11.895Z,5.41
2018-12-11T15:47:13.022Z,5.41
2018-12-11T15:48:11.463Z,5.45
2018-12-11T15:49:10.585Z,5.49
2018-12-11T15:50:10.500Z,5.37
2018-12-11T15:51:09.869Z,5.41
2018-12-11T15:52:12.819Z,5.39
2018-12-11T15:53:09.969Z,5.41
2018-12-11T15:54:09.772Z,5.37
2018-12-11T15:55:09.397Z,5.44
2018-12-11T15:56:10.182Z,5.37
2018-12-11T15:57:13.867Z,5.39
2018-12-11T15:58:13.137Z,5.41
2018-12-11T15:59:23.613Z,5.36
2018-12-11T16:00:08.950Z,5.44
2018-12-11T16:01:19.525Z,5.42
2018-12-11T16:02:11.733Z,5.34
2018-12-11T16:03:10.372Z,5.39
2018-12-11T16:04:10.194Z,5.33
2018-12-11T16:05:10.364Z,5.27
2018-12-11T16:06:13.171Z,5.31
2018-12-11T16:07:19.805Z,5.27
2018-12-11T16:08:11.040Z,5.26
2018-12-11T16:09:10.999Z,5.31
2018-12-11T16:10:11.318Z,5.26
2018-12-11T16:11:10.974Z,5.16
2018-12-11T16:12:13.691Z,5.3
2018-12-11T16:13:10.663Z,5.21
2018-12-11T16:14:11.088Z,5.31
2018-12-11T16:15:11.614Z,5.31
2018-12-11T16:16:10.146Z,5.21
2018-12-11T16:17:11.601Z,5.36
2018-12-11T16:18:10.477Z,5.34
2018-12-11T16:19:10.871Z,5.28
2018-12-11T16:20:11.416Z,5.36
2018-12-11T16:21:13.328Z,5.36
2018-12-11T16:22:14.117Z,5.39
2018-12-11T16:23:13.453Z,5.31
2018-12-11T16:24:12.111Z,5.36
2018-12-11T16:25:12.510Z,5.33
2018-12-11T16:26:11.502Z,5.37
2018-12-11T16:27:11.872Z,5.27
2018-12-11T16:28:11.644Z,5.3
2018-12-11T16:29:11.351Z,5.23
2018-12-11T16:30:11.379Z,5.37
2018-12-11T16:31:11.039Z,5.34
2018-12-11T16:32:10.476Z,5.31
2018-12-11T16:33:10.704Z,5.33
2018-12-11T16:34:11.150Z,5.34
2018-12-11T16:35:11.623Z,5.33
2018-12-11T16:36:11.460Z,5.33
2018-12-11T16:37:10.445Z,5.23
2018-12-11T16:38:11.008Z,5.26
2018-12-11T16:39:11.228Z,5.26
2018-12-11T16:40:10.947Z,5.28
2018-12-11T16:41:10.759Z,5.28
2018-12-11T16:42:10.953Z,5.24
2018-12-11T16:43:10.953Z,5.28
2018-12-11T16:44:10.439Z,5.33
2018-12-11T16:45:10.957Z,5.27
2018-12-11T16:46:11.291Z,5.41
2018-12-11T16:47:16.153Z,5.37
2018-12-11T16:48:13.152Z,5.41
2018-12-11T16:49:11.964Z,5.39
2018-12-11T16:50:11.211Z,5.49
2018-12-11T16:51:11.355Z,5.55
2018-12-11T16:52:11.180Z,5.55
2018-12-11T16:53:11.125Z,5.62
2018-12-11T16:54:12.762Z,5.51
2018-12-11T16:55:12.960Z,5.52
2018-12-11T16:56:11.771Z,5.54
2018-12-11T16:57:12.204Z,5.62
2018-12-11T16:58:11.861Z,5.64
2018-12-11T16:59:12.974Z,5.6
2018-12-11T17:01:11.348Z,5.6
2018-12-11T17:02:11.696Z,5.62
2018-12-11T17:03:11.061Z,5.6
2018-12-11T17:04:11.705Z,5.67
2018-12-11T17:05:12.107Z,5.64
2018-12-11T17:06:12.242Z,5.69
2018-12-11T17:07:12.610Z,5.62
2018-12-11T17:08:12.703Z,5.64
2018-12-11T17:09:13.348Z,5.59
2018-12-11T17:10:13.618Z,5.63
2018-12-11T17:11:13.700Z,5.57
2018-12-11T17:12:13.519Z,5.66
2018-12-11T17:13:13.472Z,5.57
2018-12-11T17:14:13.671Z,5.59
2018-12-11T17:15:14.285Z,5.57
2018-12-11T17:16:14.175Z,5.66
2018-12-11T17:17:14.968Z,5.64
2018-12-11T17:18:14.751Z,5.64
2018-12-11T17:19:14.771Z,5.6
2018-12-11T17:20:15.373Z,5.59
2018-12-11T17:21:15.811Z,5.55
2018-12-11T17:22:15.361Z,5.52
2018-12-11T17:23:15.539Z,5.45
2018-12-11T17:24:15.565Z,5.42
2018-12-11T17:25:15.843Z,5.49
2018-12-11T17:26:15.610Z,5.44
2018-12-11T17:27:15.851Z,5.45
2018-12-11T17:28:15.619Z,5.45
2018-12-11T17:29:15.655Z,5.46
2018-12-11T17:30:15.807Z,5.39
2018-12-11T17:31:16.212Z,5.42
2018-12-11T17:32:15.793Z,5.49
2018-12-11T17:33:15.758Z,5.48
2018-12-11T17:34:16.079Z,5.44
2018-12-11T17:35:15.821Z,5.41
2018-12-11T17:36:15.887Z,5.42
2018-12-11T17:37:16.239Z,5.31
2018-12-11T17:38:16.094Z,5.37
2018-12-11T17:39:15.930Z,5.37
2018-12-11T17:40:15.977Z,5.41
2018-12-11T17:41:15.996Z,5.36
2018-12-11T17:42:15.991Z,5.37
2018-12-11T17:43:16.273Z,5.3
2018-12-11T17:44:15.756Z,5.28
2018-12-11T17:45:16.049Z,5.28
2018-12-11T17:46:16.163Z,5.2
2018-12-11T17:47:15.797Z,5.2
2018-12-11T17:48:16.789Z,5.16
2018-12-11T17:49:16.761Z,5.18
2018-12-11T17:50:16.779Z,5.2
2018-12-11T17:51:16.547Z,5.26
2018-12-11T17:52:16.905Z,5.23
2018-12-11T17:53:16.927Z,5.23
2018-12-11T17:54:17.000Z,5.28
2018-12-11T17:55:17.344Z,5.27
2018-12-11T17:56:17.097Z,5.2
2018-12-11T17:57:17.493Z,5.3
2018-12-11T17:58:17.896Z,5.28
2018-12-11T17:59:18.038Z,5.3
2018-12-11T18:00:18.980Z,5.34
2018-12-11T18:01:18.655Z,5.34
2018-12-11T18:02:19.358Z,5.31
2018-12-11T18:03:19.084Z,5.37
2018-12-11T18:04:19.412Z,5.36
2018-12-11T18:05:19.039Z,5.33
2018-12-11T18:06:19.310Z,5.36
2018-12-11T18:07:20.125Z,5.34
2018-12-11T18:08:19.857Z,5.33
2018-12-11T18:09:20.179Z,5.33
2018-12-11T18:10:19.905Z,5.24
2018-12-11T18:11:20.208Z,5.31
2018-12-11T18:12:20.230Z,5.27
2018-12-11T18:13:20.261Z,5.33
2018-12-11T18:14:20.030Z,5.3
2018-12-11T18:15:20.301Z,5.33
2018-12-11T18:16:20.332Z,5.36
2018-12-11T18:17:20.191Z,5.33
2018-12-11T18:18:20.634Z,5.37
2018-12-11T18:19:20.926Z,5.26
2018-12-11T18:20:20.963Z,5.23
2018-12-11T18:21:20.987Z,5.21
2018-12-11T18:22:20.720Z,5.28
2018-12-11T18:23:21.424Z,5.2
2018-12-11T18:24:21.443Z,5.27
2018-12-11T18:25:21.486Z,5.16
2018-12-11T18:26:21.941Z,5.18
2018-12-11T18:27:21.367Z,5.15
2018-12-11T18:28:21.954Z,5.2
2018-12-11T18:29:21.966Z,5.09
2018-12-11T18:30:22.033Z,5.08
2018-12-11T18:31:21.772Z,5.15
2018-12-11T18:32:27.500Z,5.03
2018-12-11T18:33:22.103Z,5.05
2018-12-11T18:34:21.847Z,5.12
2018-12-11T18:35:22.547Z,5.03
2018-12-11T18:36:22.711Z,5.09
2018-12-11T18:37:22.882Z,5.09
2018-12-11T18:38:23.199Z,5.16
2018-12-11T18:39:22.923Z,5.16
2018-12-11T18:40:22.936Z,5.12
2018-12-11T18:41:23.461Z,5.23
2018-12-11T18:42:23.432Z,5.18
2018-12-11T18:43:23.533Z,5.18
2018-12-11T18:44:23.481Z,5.1
2018-12-11T18:45:23.209Z,5.15
2018-12-11T18:46:22.954Z,5.08
2018-12-11T18:47:23.948Z,5.09
2018-12-11T18:48:23.976Z,5.13
2018-12-11T18:49:24.002Z,5.06
2018-12-11T18:50:27.097Z,5.05
2018-12-11T18:51:27.127Z,5.09
2018-12-11T18:52:26.872Z,5.05
2018-12-11T18:53:26.884Z,5.09
2018-12-11T18:54:26.909Z,5.09
2018-12-11T18:55:27.639Z,5.09
2018-12-11T18:56:27.660Z,5.1
2018-12-11T18:57:28.182Z,5.06
2018-12-11T18:58:34.185Z,5.08
2018-12-11T18:59:27.980Z,5.1
2018-12-11T19:00:28.713Z,5.03
2018-12-11T19:01:28.865Z,5.05
2018-12-11T19:02:28.513Z,5
2018-12-11T19:03:28.705Z,5.08
2018-12-11T19:04:29.440Z,5
2018-12-11T19:05:29.473Z,5.03
2018-12-11T19:06:29.213Z,5.03
2018-12-11T19:07:29.690Z,5.02
2018-12-11T19:08:29.725Z,5.05
2018-12-11T19:09:29.695Z,5
2018-12-11T19:10:30.158Z,5
2018-12-11T19:11:30.956Z,4.97
2018-12-11T19:12:30.964Z,4.95
2018-12-11T19:13:30.708Z,4.98
2018-12-11T19:14:31.045Z,4.98
2018-12-11T19:15:31.039Z,4.97
2018-12-11T19:16:30.792Z,4.9
2018-12-11T19:17:31.543Z,5.03
2018-12-11T19:18:31.298Z,5.02
2018-12-11T19:19:31.589Z,5.05
2018-12-11T19:20:31.367Z,4.98
2018-12-11T19:21:31.362Z,5
2018-12-11T19:22:31.398Z,5.05
2018-12-11T19:23:32.149Z,5.05
2018-12-11T19:24:32.171Z,5.03
2018-12-11T19:25:32.190Z,4.9
2018-12-11T19:26:31.860Z,4.88
2018-12-11T19:27:32.901Z,4.91
2018-12-11T19:28:33.111Z,4.9
2018-12-11T19:29:33.415Z,4.88
2018-12-11T19:30:33.168Z,4.85
2018-12-11T19:31:33.501Z,4.98
2018-12-11T19:32:33.566Z,4.95
2018-12-11T19:33:33.515Z,4.97
2018-12-11T19:34:33.300Z,4.87
2018-12-11T19:35:37.856Z,4.92
2018-12-11T19:36:33.792Z,4.97
2018-12-11T19:37:33.616Z,5
2018-12-11T19:38:33.652Z,4.95
2018-12-11T19:39:33.666Z,5.05
2018-12-11T19:40:40.486Z,5
2018-12-11T19:41:34.172Z,5
2018-12-11T19:42:33.912Z,5
2018-12-11T19:43:33.926Z,4.88
2018-12-11T19:44:34.243Z,4.87
2018-12-11T19:45:34.264Z,4.85
2018-12-11T19:46:34.675Z,4.85
2018-12-11T19:47:34.498Z,4.83
2018-12-11T19:48:34.798Z,4.85
2018-12-11T19:49:35.025Z,4.85
2018-12-11T19:50:34.912Z,4.87
2018-12-11T19:51:34.870Z,4.75
2018-12-11T19:52:39.589Z,4.79
2018-12-11T19:53:35.193Z,4.83
2018-12-11T19:54:34.724Z,4.66
2018-12-11T19:55:35.169Z,4.66
2018-12-11T19:56:34.988Z,4.6
2018-12-11T19:57:35.013Z,4.53
2018-12-11T19:58:34.754Z,4.4
2018-12-11T19:59:34.783Z,4.36
2018-12-11T20:00:36.142Z,4.29
2018-12-11T20:01:37.434Z,4.26
